Weather History for Franklin, NC

Change the Weather History Date:

Tuesday, September 25, 2012

  Actual Average (KTOC) Record (KTOC)
Temperature  
Mean Temperature 57 °F -  
Max Temperature 77 °F 78 °F 75 °F (2014)
Min Temperature 37 °F 57 °F 62 °F (2014)
Degree Days  
Heating Degree Days 8    
Growing Degree Days 7 (Base 50)    
Moisture  
Dew Point 47 °F    
Average Humidity 78    
Maximum Humidity 100    
Minimum Humidity 34    
Precipitation  
Precipitation 0.00 in - - ()
Sea Level Pressure  
Sea Level Pressure 30.25 in    
Wind  
Wind Speed 0 mph (East)    
Max Wind Speed 7 mph    
Max Gust Speed -    
Visibility 7 miles    
Events Fog    
Averages and records for this station are not official NWS values.
T = Trace of Precipitation, MM = Missing Value Source: NWS Daily Summary

Daily Weather History Graph

Daily Weather History Graph

Search for Another Location

Airport:

Trip Planner

Search our weather history database for the weather conditions in past years. The results will help you decide how hot, cold, wet, or windy it might be!

Date:

Astronomy

Sep. 25, 2012 Rise Set
Actual Time 7:24 AM EDT 7:25 PM EDT
Civil Twilight 6:58 AM EDT 7:50 PM EDT
Nautical Twilight 6:29 AM EDT 8:20 PM EDT
Astronomical Twilight 5:59 AM EDT 8:49 PM EDT
Moon 4:42 PM EDT (9/25) 2:53 AM EDT (9/25)
Length of Visible Light 12h 51m
Length of Day
12h 01m
Waxing Gibbous, 80% of the Moon is Illuminated
Sep 25
Waxing Gibbous
Sep 29
Full
Oct 8
Last Quarter
Oct 15
New
Oct 21
First Quarter

Hourly Weather History & Observations

Time (EDT) Temp. Dew Point Humidity Pressure Visibility Wind Dir Wind Speed Gust Speed Precip Events Conditions
12:55 AM 41.0 °F 41.0 °F 100% 30.25 in 10.0 mi Calm Calm - N/A   Clear
1:15 AM 41.0 °F 41.0 °F 100% 30.25 in 10.0 mi Calm Calm - N/A   Clear
1:35 AM 39.2 °F 39.2 °F 100% 30.25 in 10.0 mi Calm Calm - N/A   Clear
1:55 AM 41.0 °F 41.0 °F 100% 30.25 in 7.0 mi Calm Calm - N/A   Clear
2:15 AM 39.2 °F 39.2 °F 100% 30.25 in 1.2 mi Calm Calm - N/A   Mist
3:15 AM 37.4 °F 37.4 °F 100% 30.25 in 7.0 mi Calm Calm - N/A   Mostly Cloudy
3:35 AM 41.0 °F 39.2 °F 93% 30.26 in 10.0 mi Calm Calm - N/A   Overcast
3:55 AM 41.0 °F 41.0 °F 100% 30.26 in 5.0 mi Calm Calm - N/A   Overcast
4:15 AM 41.0 °F 41.0 °F 100% 30.25 in 0.5 mi Calm Calm - N/A Fog Fog
4:35 AM 41.0 °F 41.0 °F 100% 30.26 in 0.2 mi Calm Calm - N/A Fog Fog
4:55 AM 41.0 °F 41.0 °F 100% 30.26 in 0.5 mi Calm Calm - N/A Fog Fog
5:15 AM 41.0 °F 41.0 °F 100% 30.26 in 0.5 mi Calm Calm - N/A Fog Fog
5:35 AM 41.0 °F 41.0 °F 100% 30.27 in 0.5 mi Calm Calm - N/A Fog Fog
5:55 AM 41.0 °F 41.0 °F 100% 30.27 in 0.2 mi Calm Calm - N/A Fog Fog
6:15 AM 41.0 °F 41.0 °F 100% 30.27 in 0.5 mi Calm Calm - N/A Fog Fog
6:35 AM 41.0 °F 41.0 °F 100% 30.27 in 0.2 mi Calm Calm - N/A Fog Fog
6:55 AM 41.0 °F 41.0 °F 100% 30.27 in 0.2 mi Calm Calm - N/A Fog Fog
7:15 AM 41.0 °F 41.0 °F 100% 30.27 in 0.5 mi Calm Calm - N/A Fog Fog
7:35 AM 41.0 °F 41.0 °F 100% 30.27 in 0.5 mi Calm Calm - N/A Fog Fog
7:55 AM 41.0 °F 41.0 °F 100% 30.27 in 0.2 mi Calm Calm - N/A Fog Fog
8:15 AM 41.0 °F 41.0 °F 100% 30.28 in 0.2 mi Calm Calm - N/A Fog Fog
8:35 AM 41.0 °F 41.0 °F 100% 30.28 in 0.2 mi Calm Calm - N/A Fog Fog
8:55 AM 41.0 °F 41.0 °F 100% 30.29 in 0.2 mi Calm Calm - N/A Fog Fog
9:15 AM 42.8 °F 42.8 °F 100% 30.30 in 0.5 mi Calm Calm - N/A Fog Fog
9:35 AM 42.8 °F 42.8 °F 100% 30.30 in 1.0 mi Calm Calm - N/A   Overcast
9:55 AM 44.6 °F 44.6 °F 100% 30.29 in 10.0 mi Calm Calm - N/A   Mostly Cloudy
10:15 AM 46.4 °F 46.4 °F 100% 30.29 in 10.0 mi Calm Calm - N/A   Clear
10:35 AM 50.0 °F 48.2 °F 94% 30.29 in 10.0 mi Calm Calm - N/A   Clear
10:55 AM 51.8 °F 51.8 °F 100% 30.28 in 10.0 mi Calm Calm - N/A   Clear
11:15 AM 55.4 °F 53.6 °F 94% 30.27 in 10.0 mi Calm Calm - N/A   Clear
11:35 AM 60.8 °F 46.4 °F 59% 30.28 in 10.0 mi Calm Calm - N/A   Clear
11:55 AM 60.8 °F 46.4 °F 59% 30.28 in 10.0 mi Calm Calm - N/A   Clear
12:15 PM 62.6 °F 46.4 °F 55% 30.27 in 10.0 mi Calm Calm - N/A   Clear
12:35 PM 66.2 °F 46.4 °F 49% 30.27 in 10.0 mi East 3.5 mph - N/A   Clear
12:55 PM 68.0 °F 42.8 °F 40% 30.26 in 10.0 mi East 3.5 mph - N/A   Clear
1:15 PM 69.8 °F 44.6 °F 40% 30.25 in 10.0 mi Calm Calm - N/A   Clear
1:35 PM 71.6 °F 44.6 °F 38% 30.23 in 10.0 mi Calm Calm - N/A   Clear
1:55 PM 71.6 °F 46.4 °F 41% 30.21 in 10.0 mi East 3.5 mph - N/A   Clear
2:15 PM 73.4 °F 46.4 °F 38% 30.22 in 10.0 mi Calm Calm - N/A   Clear
3:15 PM 75.2 °F 46.4 °F 36% 30.21 in 10.0 mi Calm Calm - N/A   Clear
3:35 PM 77.0 °F 46.4 °F 34% 30.21 in 10.0 mi East 3.5 mph - N/A   Clear
3:55 PM 77.0 °F 48.2 °F 36% 30.20 in 10.0 mi West 4.6 mph - N/A   Clear
4:15 PM 77.0 °F 48.2 °F 36% 30.21 in 10.0 mi Calm Calm - N/A   Clear
4:35 PM 77.0 °F 48.2 °F 36% 30.20 in 10.0 mi Calm Calm - N/A   Clear
4:55 PM 77.0 °F 50.0 °F 39% 30.20 in 10.0 mi Calm Calm - N/A   Scattered Clouds
5:15 PM 77.0 °F 50.0 °F 39% 30.19 in 10.0 mi Calm Calm - N/A   Scattered Clouds
5:35 PM 77.0 °F 51.8 °F 41% 30.19 in 10.0 mi Calm Calm - N/A   Clear
5:55 PM 73.4 °F 51.8 °F 47% 30.19 in 10.0 mi Calm Calm - N/A   Clear
6:15 PM 71.6 °F 53.6 °F 53% 30.20 in 10.0 mi Calm Calm - N/A   Clear
6:35 PM 71.6 °F 55.4 °F 57% 30.19 in 10.0 mi ESE 6.9 mph - N/A   Clear
6:55 PM 69.8 °F 55.4 °F 60% 30.19 in 10.0 mi Calm Calm - N/A   Clear
7:15 PM 69.8 °F 55.4 °F 60% 30.20 in 10.0 mi ESE 4.6 mph - N/A   Clear
7:35 PM 68.0 °F 55.4 °F 64% 30.20 in 10.0 mi ESE 3.5 mph - N/A   Clear
7:55 PM 66.2 °F 55.4 °F 68% 30.20 in 10.0 mi Calm Calm - N/A   Clear
8:15 PM 66.2 °F 55.4 °F 68% 30.21 in 10.0 mi Calm Calm - N/A   Clear
8:55 PM 62.6 °F 53.6 °F 72% 30.22 in 10.0 mi Calm Calm - N/A   Clear
9:15 PM 60.8 °F 53.6 °F 77% 30.23 in 10.0 mi Calm Calm - N/A   Clear
9:35 PM 59.0 °F 55.4 °F 88% 30.24 in 10.0 mi Calm Calm - N/A   Clear
9:55 PM 57.2 °F 55.4 °F 94% 30.24 in 10.0 mi Calm Calm - N/A   Clear
10:15 PM 55.4 °F 53.6 °F 94% 30.25 in 10.0 mi Calm Calm - N/A   Clear
10:35 PM 55.4 °F 55.4 °F 100% 30.25 in 10.0 mi ENE 4.6 mph - N/A   Clear
10:55 PM 55.4 °F 55.4 °F 100% 30.25 in 7.0 mi Calm Calm - N/A   Clear
11:15 PM 53.6 °F 53.6 °F 100% 30.25 in 10.0 mi Calm Calm - N/A   Clear
11:35 PM 53.6 °F 53.6 °F 100% 30.26 in 7.0 mi Calm Calm - N/A   Clear
11:55 PM 51.8 °F 51.8 °F 100% 30.26 in 7.0 mi Calm Calm - N/A   Clear